| Back to River Map | <<< Previous Forecast Point | | | Next Forecast Point >>> | Printer Version | Graph Version |  |
|
SALMON RIVER - SOMES BAR (SBRC1)
| Latitude: 41.38º N | Longitude: 123.48º W | Elevation: 483 Feet | | Forecast Type: Unofficial Location |
| Location: Siskiyou County in California | Bulletin Group: North Coast | River Group: Klamath |
| Issuance Time: | May 05 2026 at 7:46 AM PDT | Next Issuance: | May 06 2026 at 9:00 AM PDT
| |
| Action/Monitor: 20.0 Feet | Minor Flood: N/A | Moderate Flood: N/A | Major Flood: N/A |
# Tabular Observed and Forecast Hydrograph Information
#
# Location: Salmon River - Somes Bar (SBRC1)
#
# File Generation Time: 05/05/2026 at 07:47 AM PDT
# Data Interval: 1 Hour
#
# Most Recent Date & Time of Maximum Observed: 05/04/2026 at 05:00 PM PDT
# Maximum Observed Stage: 3.14 Feet
# Maximum Observed Flow: 1170 cfs
#
# Earliest Date & Time of Maximum Forecast: 05/05/2026 at 08:00 AM PDT
# Maximum Forecast Stage: 3.08 Feet
# Maximum Forecast Flow: 1118 cfs
#
# OBSERVED
#
# Date & Time (Local) Stage (Feet) Flow (cfs) Trend Observed Status
# ---------------------------------------------------------------------------------
04/30/2026 07 AM PDT 3.07 1109 Normal
04/30/2026 08 AM PDT 3.07 1109 0 Normal
04/30/2026 09 AM PDT 3.07 1109 0 Normal
04/30/2026 10 AM PDT 3.07 1109 0 Normal
04/30/2026 11 AM PDT 3.08 1118 + Normal
04/30/2026 12 PM PDT 3.08 1118 0 Normal
04/30/2026 01 PM PDT 3.08 1118 0 Normal
04/30/2026 02 PM PDT 3.07 1109 - Normal
04/30/2026 03 PM PDT 3.08 1118 + Normal
04/30/2026 04 PM PDT 3.07 1109 - Normal
04/30/2026 05 PM PDT 3.08 1118 + Normal
04/30/2026 06 PM PDT 3.07 1109 - Normal
04/30/2026 07 PM PDT 3.07 1109 0 Normal
04/30/2026 08 PM PDT 3.07 1109 0 Normal
04/30/2026 09 PM PDT 3.07 1109 0 Normal
04/30/2026 10 PM PDT 3.06 1101 - Normal
04/30/2026 11 PM PDT 3.06 1101 0 Normal
05/01/2026 12 AM PDT 3.05 1092 - Normal
05/01/2026 01 AM PDT 3.04 1084 - Normal
05/01/2026 02 AM PDT 3.05 1092 + Normal
05/01/2026 03 AM PDT 3.05 1092 0 Normal
05/01/2026 04 AM PDT 3.05 1092 0 Normal
05/01/2026 05 AM PDT 3.04 1084 - Normal
05/01/2026 06 AM PDT 3.04 1084 0 Normal
05/01/2026 07 AM PDT 3.03 1075 - Normal
05/01/2026 08 AM PDT 3.04 1084 + Normal
05/01/2026 09 AM PDT 3.05 1092 + Normal
05/01/2026 10 AM PDT 3.05 1092 0 Normal
05/01/2026 11 AM PDT 3.06 1101 + Normal
05/01/2026 12 PM PDT 3.07 1109 + Normal
05/01/2026 01 PM PDT 3.07 1109 0 Normal
05/01/2026 02 PM PDT 3.07 1109 0 Normal
05/01/2026 03 PM PDT 3.08 1118 + Normal
05/01/2026 04 PM PDT 3.07 1109 - Normal
05/01/2026 05 PM PDT 3.07 1109 0 Normal
05/01/2026 06 PM PDT 3.07 1109 0 Normal
05/01/2026 07 PM PDT 3.07 1109 0 Normal
05/01/2026 08 PM PDT 3.07 1109 0 Normal
05/01/2026 09 PM PDT 3.06 1101 - Normal
05/01/2026 10 PM PDT 3.05 1092 - Normal
05/01/2026 11 PM PDT 3.05 1092 0 Normal
05/02/2026 12 AM PDT 3.04 1084 - Normal
05/02/2026 01 AM PDT 3.04 1084 0 Normal
05/02/2026 02 AM PDT 3.03 1075 - Normal
05/02/2026 03 AM PDT 3.03 1075 0 Normal
05/02/2026 04 AM PDT 3.03 1075 0 Normal
05/02/2026 05 AM PDT 3.03 1075 0 Normal
05/02/2026 06 AM PDT 3.03 1075 0 Normal
05/02/2026 07 AM PDT 3.04 1084 + Normal
05/02/2026 08 AM PDT 3.05 1092 + Normal
05/02/2026 09 AM PDT 3.06 1101 + Normal
05/02/2026 10 AM PDT 3.06 1101 0 Normal
05/02/2026 11 AM PDT 3.07 1109 + Normal
05/02/2026 12 PM PDT 3.08 1118 + Normal
05/02/2026 01 PM PDT 3.08 1118 0 Normal
05/02/2026 02 PM PDT 3.08 1118 0 Normal
05/02/2026 03 PM PDT 3.08 1118 0 Normal
05/02/2026 04 PM PDT 3.08 1118 0 Normal
05/02/2026 05 PM PDT 3.08 1118 0 Normal
05/02/2026 06 PM PDT 3.08 1118 0 Normal
05/02/2026 07 PM PDT 3.07 1109 - Normal
05/02/2026 08 PM PDT 3.07 1109 0 Normal
05/02/2026 09 PM PDT 3.06 1101 - Normal
05/02/2026 10 PM PDT 3.06 1101 0 Normal
05/02/2026 11 PM PDT 3.05 1092 - Normal
05/03/2026 12 AM PDT 3.05 1092 0 Normal
05/03/2026 01 AM PDT 3.05 1092 0 Normal
05/03/2026 02 AM PDT 3.03 1075 - Normal
05/03/2026 03 AM PDT 3.04 1084 + Normal
05/03/2026 04 AM PDT 3.05 1092 + Normal
05/03/2026 05 AM PDT 3.06 1101 + Normal
05/03/2026 06 AM PDT 3.08 1118 + Normal
05/03/2026 07 AM PDT 3.09 1127 + Normal
05/03/2026 08 AM PDT 3.11 1144 + Normal
05/03/2026 09 AM PDT 3.12 1153 + Normal
05/03/2026 10 AM PDT 3.13 1162 + Normal
05/03/2026 11 AM PDT 3.14 1170 + Normal
05/03/2026 12 PM PDT 3.13 1162 - Normal
05/03/2026 01 PM PDT 3.14 1170 + Normal
05/03/2026 02 PM PDT 3.13 1162 - Normal
05/03/2026 03 PM PDT 3.13 1162 0 Normal
05/03/2026 04 PM PDT 3.13 1162 0 Normal
05/03/2026 05 PM PDT 3.12 1153 - Normal
05/03/2026 06 PM PDT 3.12 1153 0 Normal
05/03/2026 07 PM PDT 3.11 1144 - Normal
05/03/2026 08 PM PDT 3.11 1144 0 Normal
05/03/2026 09 PM PDT 3.10 1135 - Normal
05/03/2026 10 PM PDT 3.10 1135 0 Normal
05/03/2026 11 PM PDT 3.08 1118 - Normal
05/04/2026 12 AM PDT 3.08 1118 0 Normal
05/04/2026 01 AM PDT 3.08 1118 0 Normal
05/04/2026 02 AM PDT 3.08 1118 0 Normal
05/04/2026 03 AM PDT 3.09 1127 + Normal
05/04/2026 04 AM PDT 3.08 1118 - Normal
05/04/2026 05 AM PDT 3.08 1118 0 Normal
05/04/2026 06 AM PDT 3.09 1127 + Normal
05/04/2026 07 AM PDT 3.09 1127 0 Normal
05/04/2026 08 AM PDT 3.10 1135 + Normal
05/04/2026 09 AM PDT 3.11 1144 + Normal
05/04/2026 10 AM PDT 3.11 1144 0 Normal
05/04/2026 11 AM PDT 3.12 1153 + Normal
05/04/2026 12 PM PDT 3.12 1153 0 Normal
05/04/2026 01 PM PDT 3.12 1153 0 Normal
05/04/2026 02 PM PDT 3.13 1162 + Normal
05/04/2026 03 PM PDT 3.14 1170 + Normal
05/04/2026 04 PM PDT 3.13 1162 - Normal
05/04/2026 05 PM PDT 3.14 1170 + Normal
05/04/2026 06 PM PDT 3.13 1162 - Normal
05/04/2026 07 PM PDT 3.13 1162 0 Normal
05/04/2026 08 PM PDT 3.13 1162 0 Normal
05/04/2026 09 PM PDT 3.12 1153 - Normal
05/04/2026 10 PM PDT 3.11 1144 - Normal
05/04/2026 11 PM PDT 3.11 1144 0 Normal
05/05/2026 12 AM PDT 3.11 1144 0 Normal
05/05/2026 01 AM PDT 3.09 1127 - Normal
05/05/2026 02 AM PDT 3.08 1118 - Normal
05/05/2026 03 AM PDT 3.09 1127 + Normal
05/05/2026 04 AM PDT 3.09 1127 0 Normal
05/05/2026 05 AM PDT 3.09 1127 0 Normal
05/05/2026 06 AM PDT 3.09 1127 0 Normal
05/05/2026 07 AM PDT 3.09 1127 0 Normal
#
# FORECAST
#
# Date & Time (Local) Stage (Feet) Flow (cfs) Trend Forecast Status
# ---------------------------------------------------------------------------------
05/05/2026 08 AM PDT 3.08 1118 Normal
05/05/2026 09 AM PDT 3.08 1118 0 Normal
05/05/2026 10 AM PDT 3.08 1118 0 Normal
05/05/2026 11 AM PDT 3.08 1118 0 Normal
05/05/2026 12 PM PDT 3.08 1118 0 Normal
05/05/2026 01 PM PDT 3.08 1118 0 Normal
05/05/2026 02 PM PDT 3.08 1118 0 Normal
05/05/2026 03 PM PDT 3.08 1118 0 Normal
05/05/2026 04 PM PDT 3.07 1109 - Normal
05/05/2026 05 PM PDT 3.07 1109 0 Normal
05/05/2026 06 PM PDT 3.07 1109 0 Normal
05/05/2026 07 PM PDT 3.07 1109 0 Normal
05/05/2026 08 PM PDT 3.07 1109 0 Normal
05/05/2026 09 PM PDT 3.07 1109 0 Normal
05/05/2026 10 PM PDT 3.07 1109 0 Normal
05/05/2026 11 PM PDT 3.07 1109 0 Normal
05/06/2026 12 AM PDT 3.06 1101 - Normal
05/06/2026 01 AM PDT 3.06 1101 0 Normal
05/06/2026 02 AM PDT 3.06 1101 0 Normal
05/06/2026 03 AM PDT 3.06 1101 0 Normal
05/06/2026 04 AM PDT 3.06 1101 0 Normal
05/06/2026 05 AM PDT 3.06 1101 0 Normal
05/06/2026 06 AM PDT 3.06 1101 0 Normal
05/06/2026 07 AM PDT 3.06 1101 0 Normal
05/06/2026 08 AM PDT 3.06 1101 0 Normal
05/06/2026 09 AM PDT 3.06 1101 0 Normal
05/06/2026 10 AM PDT 3.06 1101 0 Normal
05/06/2026 11 AM PDT 3.05 1092 - Normal
05/06/2026 12 PM PDT 3.05 1092 0 Normal
05/06/2026 01 PM PDT 3.05 1092 0 Normal
05/06/2026 02 PM PDT 3.05 1092 0 Normal
05/06/2026 03 PM PDT 3.05 1092 0 Normal
05/06/2026 04 PM PDT 3.05 1092 0 Normal
05/06/2026 05 PM PDT 3.05 1092 0 Normal
05/06/2026 06 PM PDT 3.05 1092 0 Normal
05/06/2026 07 PM PDT 3.05 1092 0 Normal
05/06/2026 08 PM PDT 3.04 1084 - Normal
05/06/2026 09 PM PDT 3.04 1084 0 Normal
05/06/2026 10 PM PDT 3.04 1084 0 Normal
05/06/2026 11 PM PDT 3.04 1084 0 Normal
05/07/2026 12 AM PDT 3.04 1084 0 Normal
05/07/2026 01 AM PDT 3.04 1084 0 Normal
05/07/2026 02 AM PDT 3.04 1084 0 Normal
05/07/2026 03 AM PDT 3.04 1084 0 Normal
05/07/2026 04 AM PDT 3.04 1084 0 Normal
05/07/2026 05 AM PDT 3.04 1084 0 Normal
05/07/2026 06 AM PDT 3.04 1084 0 Normal
05/07/2026 07 AM PDT 3.03 1075 - Normal
05/07/2026 08 AM PDT 3.03 1075 0 Normal
05/07/2026 09 AM PDT 3.03 1075 0 Normal
05/07/2026 10 AM PDT 3.03 1075 0 Normal
05/07/2026 11 AM PDT 3.03 1075 0 Normal
05/07/2026 12 PM PDT 3.03 1075 0 Normal
05/07/2026 01 PM PDT 3.03 1075 0 Normal
05/07/2026 02 PM PDT 3.03 1075 0 Normal
05/07/2026 03 PM PDT 3.03 1075 0 Normal
05/07/2026 04 PM PDT 3.03 1075 0 Normal
05/07/2026 05 PM PDT 3.02 1067 - Normal
05/07/2026 06 PM PDT 3.02 1067 0 Normal
05/07/2026 07 PM PDT 3.02 1067 0 Normal
05/07/2026 08 PM PDT 3.02 1067 0 Normal
05/07/2026 09 PM PDT 3.02 1067 0 Normal
05/07/2026 10 PM PDT 3.02 1067 0 Normal
05/07/2026 11 PM PDT 3.02 1067 0 Normal
05/08/2026 12 AM PDT 3.02 1067 0 Normal
05/08/2026 01 AM PDT 3.02 1067 0 Normal
05/08/2026 02 AM PDT 3.02 1067 0 Normal
05/08/2026 03 AM PDT 3.02 1067 0 Normal
05/08/2026 04 AM PDT 3.02 1067 0 Normal
05/08/2026 05 AM PDT 3.01 1058 - Normal
05/08/2026 06 AM PDT 3.01 1058 0 Normal
05/08/2026 07 AM PDT 3.01 1058 0 Normal
05/08/2026 08 AM PDT 3.01 1058 0 Normal
05/08/2026 09 AM PDT 3.01 1058 0 Normal
05/08/2026 10 AM PDT 3.01 1058 0 Normal
05/08/2026 11 AM PDT 3.01 1058 0 Normal
05/08/2026 12 PM PDT 3.01 1058 0 Normal
05/08/2026 01 PM PDT 3.01 1058 0 Normal
05/08/2026 02 PM PDT 3.01 1058 0 Normal
05/08/2026 03 PM PDT 3.00 1050 - Normal
05/08/2026 04 PM PDT 3.00 1050 0 Normal
05/08/2026 05 PM PDT 3.00 1050 0 Normal
05/08/2026 06 PM PDT 3.00 1050 0 Normal
05/08/2026 07 PM PDT 3.00 1050 0 Normal
05/08/2026 08 PM PDT 3.00 1050 0 Normal
05/08/2026 09 PM PDT 3.00 1050 0 Normal
05/08/2026 10 PM PDT 3.00 1050 0 Normal
05/08/2026 11 PM PDT 3.00 1050 0 Normal
05/09/2026 12 AM PDT 3.00 1050 0 Normal
05/09/2026 01 AM PDT 3.00 1050 0 Normal
05/09/2026 02 AM PDT 3.00 1050 0 Normal
05/09/2026 03 AM PDT 2.99 1042 - Normal
05/09/2026 04 AM PDT 2.99 1042 0 Normal
05/09/2026 05 AM PDT 2.99 1042 0 Normal
05/09/2026 06 AM PDT 2.99 1042 0 Normal
05/09/2026 07 AM PDT 2.99 1042 0 Normal
05/09/2026 08 AM PDT 2.99 1042 0 Normal
05/09/2026 09 AM PDT 2.99 1042 0 Normal
05/09/2026 10 AM PDT 2.99 1042 0 Normal
05/09/2026 11 AM PDT 2.99 1042 0 Normal
05/09/2026 12 PM PDT 2.99 1042 0 Normal
05/09/2026 01 PM PDT 2.99 1042 0 Normal
05/09/2026 02 PM PDT 2.98 1033 - Normal
05/09/2026 03 PM PDT 2.98 1033 0 Normal
05/09/2026 04 PM PDT 2.98 1033 0 Normal
05/09/2026 05 PM PDT 2.98 1033 0 Normal
05/09/2026 06 PM PDT 2.98 1033 0 Normal
05/09/2026 07 PM PDT 2.98 1033 0 Normal
05/09/2026 08 PM PDT 2.98 1033 0 Normal
05/09/2026 09 PM PDT 2.98 1033 0 Normal
05/09/2026 10 PM PDT 2.98 1033 0 Normal
05/09/2026 11 PM PDT 2.98 1033 0 Normal
05/10/2026 12 AM PDT 2.98 1033 0 Normal
05/10/2026 01 AM PDT 2.98 1033 0 Normal
05/10/2026 02 AM PDT 2.98 1033 0 Normal
05/10/2026 03 AM PDT 2.98 1033 0 Normal
05/10/2026 04 AM PDT 2.97 1025 - Normal
05/10/2026 05 AM PDT 2.97 1025 0 Normal
#
# NOTE 1: Stages are rounded to the nearest hundredth (.01) of a foot.
# NOTE 2: Flows are rounded to the nearest (1) cfs.
# NOTE 3: Trends are determined using hourly change in unrounded stage and flow.
# NOTE 4: Maximum Values are determined using unrounded stage and flow.
|